Time,TemperatureF,DewpointF,PressureIn,WindDirection,WindDirectionDegrees,WindSpeedMPH,WindSpeedGustMPH,Humidity,HourlyPrecipIn,Conditions,Clouds,dailyrainin,SoftwareType,DateUTC
2013-12-24 00:00:00,25.7,22.9,30.13,NNW,338,0.0,0.0,89,0.00,,OVC,0.00,WeatherDisplay:10.37,2013-12-24 05:00:00,
2013-12-24 00:10:00,25.3,22.5,30.13,NW,326,0.0,0.0,89,0.00,,OVC,0.00,WeatherDisplay:10.37,2013-12-24 05:10:00,
2013-12-24 00:20:00,24.9,22.1,30.13,NNW,343,0.0,0.0,89,0.00,,OVC,0.00,WeatherDisplay:10.37,2013-12-24 05:20:00,
2013-12-24 00:30:00,24.6,22.1,30.13,NNW,348,0.0,0.0,90,0.00,,OVC,0.00,WeatherDisplay:10.37,2013-12-24 05:30:00,
2013-12-24 00:40:00,24.4,22.2,30.13,NNW,334,0.0,0.0,91,0.00,,OVC,0.00,WeatherDisplay:10.37,2013-12-24 05:40:00,
2013-12-24 00:50:00,24.3,22.5,30.13,NNW,336,0.0,0.0,93,0.00,,OVC,0.00,WeatherDisplay:10.37,2013-12-24 05:50:00,
2013-12-24 01:00:00,24.1,22.6,30.13,North,5,0.0,0.0,94,0.00,,OVC,0.00,WeatherDisplay:10.37,2013-12-24 06:00:00,
2013-12-24 01:10:00,23.9,22.7,30.13,NE,48,0.0,0.0,95,0.00,,OVC,0.00,WeatherDisplay:10.37,2013-12-24 06:10:00,
2013-12-24 01:20:00,23.9,22.9,30.13,NW,317,0.0,0.0,96,0.00,,OVC,0.00,WeatherDisplay:10.37,2013-12-24 06:20:00,
2013-12-24 01:30:00,23.9,22.9,30.13,NW,317,0.0,0.0,96,0.00,,OVC,0.00,WeatherDisplay:10.37,2013-12-24 06:30:00,
2013-12-24 01:40:00,23.7,22.7,30.13,NNW,337,0.0,0.0,96,0.00,,OVC,0.00,WeatherDisplay:10.37,2013-12-24 06:40:00,
2013-12-24 01:50:00,23.5,22.6,30.13,NNW,329,0.0,0.0,96,0.00,,OVC,0.00,WeatherDisplay:10.37,2013-12-24 06:50:00,
2013-12-24 02:00:00,23.3,22.3,30.13,NNW,333,0.0,0.0,96,0.00,,OVC,0.00,WeatherDisplay:10.37,2013-12-24 07:00:00,
2013-12-24 02:10:00,23.2,22.2,30.13,NW,324,0.0,0.0,96,0.00,,OVC,0.00,WeatherDisplay:10.37,2013-12-24 07:10:00,
2013-12-24 02:20:00,23.2,22.2,30.13,NNW,335,0.0,0.0,96,0.00,,OVC,0.00,WeatherDisplay:10.37,2013-12-24 07:20:00,
2013-12-24 02:30:00,23.2,22.5,30.13,North,358,0.0,0.0,97,0.00,,OVC,0.00,WeatherDisplay:10.37,2013-12-24 07:30:00,
2013-12-24 02:40:00,23.4,22.6,30.16,SW,232,0.0,0.0,97,0.00,,OVC,0.00,WeatherDisplay:10.37,2013-12-24 07:40:00,
2013-12-24 02:50:00,23.6,22.9,30.16,NW,306,0.0,0.0,97,0.00,,OVC,0.00,WeatherDisplay:10.37,2013-12-24 07:50:00,
2013-12-24 03:00:00,23.9,22.9,30.13,NW,325,0.0,0.0,96,0.00,,OVC,0.00,WeatherDisplay:10.37,2013-12-24 08:00:00,
2013-12-24 03:10:00,23.9,22.9,30.13,NW,317,0.0,0.0,96,0.00,,OVC,0.00,WeatherDisplay:10.37,2013-12-24 08:10:00,
2013-12-24 03:20:00,23.9,22.7,30.13,North,2,0.0,0.0,95,0.00,,OVC,0.00,WeatherDisplay:10.37,2013-12-24 08:20:00,
2013-12-24 03:30:00,23.9,22.2,30.13,WNW,299,0.0,0.0,93,0.00,,OVC,0.00,WeatherDisplay:10.37,2013-12-24 08:30:00,
2013-12-24 03:40:00,23.7,21.7,30.13,NNW,335,0.0,0.0,92,0.00,,OVC,0.00,WeatherDisplay:10.37,2013-12-24 08:40:00,
2013-12-24 03:50:00,23.8,21.8,30.13,North,350,0.0,0.0,92,0.00,,OVC,0.00,WeatherDisplay:10.37,2013-12-24 08:50:00,
2013-12-24 04:00:00,23.7,21.7,30.13,NE,40,0.0,0.0,92,0.00,,OVC,0.00,WeatherDisplay:10.37,2013-12-24 09:00:00,
2013-12-24 04:10:00,23.7,21.7,30.13,NNW,327,0.0,0.0,92,0.00,,OVC,0.00,WeatherDisplay:10.37,2013-12-24 09:10:00,
2013-12-24 04:20:00,23.5,21.6,30.13,NNW,337,0.0,0.0,92,0.00,,OVC,0.00,WeatherDisplay:10.37,2013-12-24 09:20:00,
2013-12-24 04:30:00,23.4,21.6,30.13,NNW,334,0.0,0.0,93,0.00,,OVC,0.00,WeatherDisplay:10.37,2013-12-24 09:30:00,
2013-12-24 04:40:00,23.2,21.5,30.13,NNW,344,0.0,0.0,93,0.00,,OVC,0.00,WeatherDisplay:10.37,2013-12-24 09:40:00,
2013-12-24 04:50:00,23.2,21.2,30.13,NNW,348,0.0,0.0,92,0.00,,OVC,0.00,WeatherDisplay:10.37,2013-12-24 09:50:00,
2013-12-24 05:00:00,23.0,21.5,30.10,NNW,332,0.0,0.0,94,0.00,,OVC,0.00,WeatherDisplay:10.37,2013-12-24 10:00:00,
2013-12-24 05:10:00,23.0,21.8,30.13,North,350,0.0,0.0,95,0.00,,OVC,0.00,WeatherDisplay:10.37,2013-12-24 10:10:00,
2013-12-24 05:20:00,22.8,21.6,30.13,North,354,0.0,0.0,95,0.00,,OVC,0.00,WeatherDisplay:10.37,2013-12-24 10:20:00,
2013-12-24 05:30:00,22.6,21.2,30.10,NNW,329,0.0,0.0,94,0.00,,OVC,0.00,WeatherDisplay:10.37,2013-12-24 10:30:00,
2013-12-24 05:40:00,22.6,20.7,30.10,NW,324,0.0,0.0,92,0.00,,OVC,0.00,WeatherDisplay:10.37,2013-12-24 10:40:00,
2013-12-24 05:50:00,22.4,20.4,30.10,NNW,341,0.0,0.0,92,0.00,,OVC,0.00,WeatherDisplay:10.37,2013-12-24 10:50:00,
2013-12-24 06:00:00,22.3,20.1,30.10,NW,311,0.0,0.0,91,0.00,,OVC,0.00,WeatherDisplay:10.37,2013-12-24 11:00:00,
2013-12-24 06:10:00,22.3,20.3,30.10,NNW,333,0.0,0.0,92,0.00,,OVC,0.00,WeatherDisplay:10.37,2013-12-24 11:10:00,
2013-12-24 06:20:00,22.0,20.1,30.10,NW,313,0.0,0.0,92,0.00,,OVC,0.00,WeatherDisplay:10.37,2013-12-24 11:20:00,
2013-12-24 06:30:00,21.4,19.4,30.10,NNW,333,0.0,0.0,92,0.00,,OVC,0.00,WeatherDisplay:10.37,2013-12-24 11:30:00,
2013-12-24 06:40:00,20.8,19.1,30.07,West,274,0.0,0.0,93,0.00,,OVC,0.00,WeatherDisplay:10.37,2013-12-24 11:40:00,
2013-12-24 06:50:00,20.4,19.2,30.07,WNW,288,0.0,0.0,95,0.00,,OVC,0.00,WeatherDisplay:10.37,2013-12-24 11:50:00,
2013-12-24 07:00:00,19.7,18.5,30.10,North,353,0.0,0.0,95,0.00,,OVC,0.00,WeatherDisplay:10.37,2013-12-24 12:00:00,
2013-12-24 07:10:00,18.7,17.5,30.10,WNW,303,0.0,0.0,95,0.00,,OVC,0.00,WeatherDisplay:10.37,2013-12-24 12:10:00,
2013-12-24 07:20:00,18.7,17.7,30.10,WNW,293,0.0,0.0,96,0.00,,OVC,0.00,WeatherDisplay:10.37,2013-12-24 12:20:00,
2013-12-24 07:30:00,18.5,17.8,30.10,West,280,0.0,0.0,97,0.00,,OVC,0.00,WeatherDisplay:10.37,2013-12-24 12:30:00,
2013-12-24 07:40:00,18.0,17.3,30.10,West,276,0.0,0.0,97,0.00,,OVC,0.00,WeatherDisplay:10.37,2013-12-24 12:40:00,
2013-12-24 07:50:00,18.7,18.7,30.10,West,260,0.0,0.0,100,0.00,,OVC,0.00,WeatherDisplay:10.37,2013-12-24 12:50:00,
2013-12-24 08:00:00,21.7,21.7,30.10,NNW,336,0.0,0.0,100,0.00,,OVC,0.00,WeatherDisplay:10.37,2013-12-24 13:00:00,
2013-12-24 08:10:00,22.5,20.0,30.07,WNW,283,0.0,0.0,90,0.00,,OVC,0.00,WeatherDisplay:10.37,2013-12-24 13:10:00,
2013-12-24 08:20:00,21.9,19.4,30.07,SSW,199,0.0,0.0,90,0.00,,OVC,0.00,WeatherDisplay:10.37,2013-12-24 13:20:00,
2013-12-24 08:30:00,25.3,22.0,30.10,SW,227,0.0,0.0,87,0.00,,OVC,0.00,WeatherDisplay:10.37,2013-12-24 13:30:00,
2013-12-24 08:40:00,26.3,21.6,30.10,SW,214,0.0,0.0,82,0.00,,OVC,0.00,WeatherDisplay:10.37,2013-12-24 13:40:00,
2013-12-24 08:50:00,29.0,23.6,30.10,West,271,0.0,0.0,80,0.00,,OVC,0.00,WeatherDisplay:10.37,2013-12-24 13:50:00,
2013-12-24 09:00:00,29.3,22.9,30.10,SW,231,0.0,0.0,77,0.00,,OVC,0.00,WeatherDisplay:10.37,2013-12-24 14:00:00,
2013-12-24 09:10:00,29.9,22.6,30.10,West,261,0.0,0.0,74,0.00,,OVC,0.00,WeatherDisplay:10.37,2013-12-24 14:10:00,
2013-12-24 09:20:00,29.8,21.5,30.10,West,272,0.0,0.0,71,0.00,,OVC,0.00,WeatherDisplay:10.37,2013-12-24 14:20:00,
2013-12-24 09:30:00,30.2,21.9,30.10,WSW,255,0.0,0.0,71,0.00,,OVC,0.00,WeatherDisplay:10.37,2013-12-24 14:30:00,
2013-12-24 09:40:00,32.7,25.3,30.10,West,271,0.0,0.0,74,0.00,,OVC,0.00,WeatherDisplay:10.37,2013-12-24 14:40:00,
2013-12-24 09:50:00,32.1,23.8,30.10,WNW,296,0.0,0.0,71,0.00,,OVC,0.00,WeatherDisplay:10.37,2013-12-24 14:50:00,
2013-12-24 10:00:00,32.0,22.9,30.10,WSW,240,0.0,0.0,69,0.00,,OVC,0.00,WeatherDisplay:10.37,2013-12-24 15:00:00,
2013-12-24 10:10:00,29.5,20.2,30.07,WSW,257,0.0,0.0,68,0.00,,OVC,0.00,WeatherDisplay:10.37,2013-12-24 15:10:00,
2013-12-24 10:20:00,27.7,19.9,30.07,West,278,0.0,0.0,72,0.00,,OVC,0.00,WeatherDisplay:10.37,2013-12-24 15:20:00,
2013-12-24 10:30:00,27.9,20.7,30.10,WNW,293,0.0,0.0,74,0.00,,OVC,0.00,WeatherDisplay:10.37,2013-12-24 15:30:00,
2013-12-24 10:40:00,28.9,22.3,30.10,WSW,246,0.0,0.0,76,0.00,,OVC,0.00,WeatherDisplay:10.37,2013-12-24 15:40:00,
2013-12-24 10:50:00,29.5,21.9,30.10,WNW,287,0.0,0.0,73,0.00,,OVC,0.00,WeatherDisplay:10.37,2013-12-24 15:50:00,
2013-12-24 11:00:00,30.1,22.5,30.10,NW,309,0.0,0.0,73,0.00,,OVC,0.00,WeatherDisplay:10.37,2013-12-24 16:00:00,
2013-12-24 11:10:00,28.9,21.0,30.10,WNW,290,0.0,0.0,72,0.00,,OVC,0.00,WeatherDisplay:10.37,2013-12-24 16:10:00,
2013-12-24 11:20:00,28.5,21.2,30.10,WNW,303,0.0,0.0,74,0.00,,OVC,0.00,WeatherDisplay:10.37,2013-12-24 16:20:00,
2013-12-24 11:30:00,27.9,20.4,30.07,NW,305,0.0,0.0,73,0.00,,OVC,0.00,WeatherDisplay:10.37,2013-12-24 16:30:00,
2013-12-24 11:40:00,26.6,19.4,30.07,WNW,294,0.0,0.0,74,0.00,,OVC,0.00,WeatherDisplay:10.37,2013-12-24 16:40:00,
2013-12-24 11:50:00,26.3,19.8,30.07,West,274,0.0,0.0,76,0.00,,OVC,0.00,WeatherDisplay:10.37,2013-12-24 16:50:00,
2013-12-24 12:00:00,27.0,21.0,30.07,NW,320,0.0,0.0,78,0.00,,OVC,0.00,WeatherDisplay:10.37,2013-12-24 17:00:00,
2013-12-24 12:10:00,26.0,18.8,30.07,West,281,0.0,0.0,74,0.00,,OVC,0.00,WeatherDisplay:10.37,2013-12-24 17:10:00,
2013-12-24 12:20:00,26.0,18.5,30.07,North,353,0.0,0.0,73,0.00,,OVC,0.00,WeatherDisplay:10.37,2013-12-24 17:20:00,
2013-12-24 12:30:00,25.7,18.9,30.07,NW,323,0.0,0.0,75,0.00,,OVC,0.00,WeatherDisplay:10.37,2013-12-24 17:30:00,
2013-12-24 12:40:00,25.3,18.8,30.07,NNE,14,0.0,0.0,76,0.00,,OVC,0.00,WeatherDisplay:10.37,2013-12-24 17:40:00,
2013-12-24 12:50:00,25.2,19.6,30.07,NNW,330,0.0,0.0,79,0.00,,OVC,0.00,WeatherDisplay:10.37,2013-12-24 17:50:00,
2013-12-24 13:00:00,24.8,19.5,30.04,North,356,0.0,0.0,80,0.00,,OVC,0.00,WeatherDisplay:10.37,2013-12-24 18:00:00,
2013-12-24 13:10:00,25.0,20.3,30.07,NW,323,0.0,0.0,82,0.00,,OVC,0.00,WeatherDisplay:10.37,2013-12-24 18:10:00,
2013-12-24 13:20:00,24.6,20.2,30.07,NW,312,0.0,0.0,83,0.00,,OVC,0.00,WeatherDisplay:10.37,2013-12-24 18:20:00,
2013-12-24 13:30:00,24.8,20.9,30.04,WNW,296,0.0,0.0,85,0.00,,OVC,0.00,WeatherDisplay:10.37,2013-12-24 18:30:00,
2013-12-24 13:40:00,24.8,21.2,30.04,WNW,284,0.0,0.0,86,0.00,,OVC,0.00,WeatherDisplay:10.37,2013-12-24 18:40:00,
2013-12-24 13:50:00,25.0,21.9,30.04,West,266,0.0,0.0,88,0.00,,OVC,0.00,WeatherDisplay:10.37,2013-12-24 18:50:00,
2013-12-24 14:00:00,25.7,22.4,30.04,West,276,0.0,0.0,87,0.00,,OVC,0.00,WeatherDisplay:10.37,2013-12-24 19:00:00,
2013-12-24 14:10:00,26.7,23.3,30.04,West,279,0.0,0.0,87,0.00,,OVC,0.00,WeatherDisplay:10.37,2013-12-24 19:10:00,
2013-12-24 14:20:00,27.0,22.9,30.04,West,279,0.0,0.0,84,0.00,,OVC,0.00,WeatherDisplay:10.37,2013-12-24 19:20:00,
2013-12-24 14:30:00,26.0,21.5,30.04,NW,314,0.0,0.0,83,0.00,,OVC,0.00,WeatherDisplay:10.37,2013-12-24 19:30:00,
2013-12-24 14:40:00,26.5,22.1,30.04,NNE,16,0.0,0.0,83,0.00,,OVC,0.00,WeatherDisplay:10.37,2013-12-24 19:40:00,
2013-12-24 14:50:00,26.8,22.0,30.04,NNW,347,0.0,0.0,82,0.00,,OVC,0.00,WeatherDisplay:10.37,2013-12-24 19:50:00,
2013-12-24 15:00:00,26.8,21.8,30.07,NE,45,0.0,0.0,81,0.00,,OVC,0.00,WeatherDisplay:10.37,2013-12-24 20:00:00,
2013-12-24 15:10:00,25.7,20.4,30.04,NNW,341,0.0,0.0,80,0.00,,OVC,0.00,WeatherDisplay:10.37,2013-12-24 20:10:00,
2013-12-24 15:20:00,24.4,19.7,30.04,NNW,334,0.0,0.0,82,0.00,,OVC,0.00,WeatherDisplay:10.37,2013-12-24 20:20:00,
2013-12-24 15:30:00,23.7,19.9,30.04,North,1,0.0,0.0,85,0.00,,OVC,0.00,WeatherDisplay:10.37,2013-12-24 20:30:00,
2013-12-24 15:40:00,23.2,19.9,30.07,NW,325,0.0,0.0,87,0.00,,OVC,0.00,WeatherDisplay:10.37,2013-12-24 20:40:00,
2013-12-24 15:50:00,22.8,19.8,30.07,NNW,347,0.0,0.0,88,0.00,,OVC,0.00,WeatherDisplay:10.37,2013-12-24 20:50:00,
2013-12-24 16:00:00,22.8,19.7,30.07,North,9,0.0,0.0,88,0.00,,OVC,0.00,WeatherDisplay:10.37,2013-12-24 21:00:00,
2013-12-24 16:10:00,22.6,19.6,30.07,NNW,339,0.0,0.0,88,0.00,,OVC,0.00,WeatherDisplay:10.37,2013-12-24 21:10:00,
2013-12-24 16:20:00,22.3,19.5,30.07,NNW,328,0.0,0.0,89,0.00,,OVC,0.00,WeatherDisplay:10.37,2013-12-24 21:20:00,
2013-12-24 16:30:00,22.3,19.8,30.07,NNE,12,0.0,0.0,90,0.00,,OVC,0.00,WeatherDisplay:10.37,2013-12-24 21:30:00,
2013-12-24 16:40:00,22.1,19.8,30.07,North,7,0.0,0.0,91,0.00,,OVC,0.00,WeatherDisplay:10.37,2013-12-24 21:40:00,
2013-12-24 16:50:00,20.8,19.6,30.07,NNW,343,0.0,0.0,95,0.00,,OVC,0.00,WeatherDisplay:10.37,2013-12-24 21:50:00,
2013-12-24 17:00:00,19.4,18.7,30.10,NNE,12,0.0,0.0,97,0.00,,OVC,0.00,WeatherDisplay:10.37,2013-12-24 22:00:00,
2013-12-24 17:10:00,18.9,17.7,30.10,North,2,0.0,0.0,95,0.00,,OVC,0.00,WeatherDisplay:10.37,2013-12-24 22:10:00,
2013-12-24 17:20:00,18.7,16.7,30.10,NNW,337,0.0,0.0,92,0.00,,OVC,0.00,WeatherDisplay:10.37,2013-12-24 22:20:00,
2013-12-24 17:30:00,18.5,16.6,30.10,NNE,27,0.0,0.0,92,0.00,,OVC,0.00,WeatherDisplay:10.37,2013-12-24 22:30:00,
2013-12-24 17:40:00,18.3,16.1,30.10,NW,322,0.0,0.0,91,0.00,,OVC,0.00,WeatherDisplay:10.37,2013-12-24 22:40:00,
2013-12-24 17:50:00,18.1,16.0,30.10,North,7,0.0,0.0,91,0.00,,OVC,0.00,WeatherDisplay:10.37,2013-12-24 22:50:00,
2013-12-24 18:00:00,17.9,15.7,30.10,NNW,348,0.0,0.0,91,0.00,,OVC,0.00,WeatherDisplay:10.37,2013-12-24 23:00:00,
2013-12-24 18:10:00,17.4,15.2,30.13,NW,308,0.0,0.0,91,0.00,,OVC,0.00,WeatherDisplay:10.37,2013-12-24 23:10:00,
2013-12-24 18:20:00,17.4,15.0,30.13,NW,320,0.0,0.0,90,0.00,,OVC,0.00,WeatherDisplay:10.37,2013-12-24 23:20:00,
2013-12-24 18:30:00,17.4,15.2,30.16,North,6,0.0,0.0,91,0.00,,OVC,0.00,WeatherDisplay:10.37,2013-12-24 23:30:00,
2013-12-24 18:40:00,17.1,15.2,30.16,WNW,297,0.0,0.0,92,0.00,,OVC,0.00,WeatherDisplay:10.37,2013-12-24 23:40:00,
2013-12-24 18:50:00,17.1,15.4,30.16,NW,315,0.0,0.0,93,0.00,,OVC,0.00,WeatherDisplay:10.37,2013-12-24 23:50:00,
2013-12-24 19:10:00,16.7,15.5,30.19,NNW,338,0.0,0.0,95,0.00,,OVC,0.00,WeatherDisplay:10.37,2013-12-25 00:10:00,
2013-12-24 19:20:00,16.7,15.8,30.19,North,352,0.0,0.0,96,0.00,,OVC,0.00,WeatherDisplay:10.37,2013-12-25 00:20:00,
2013-12-24 19:30:00,16.5,15.3,30.13,NNW,331,0.0,0.0,95,0.00,,OVC,0.00,WeatherDisplay:10.37,2013-12-25 00:30:00,
2013-12-24 19:40:00,16.2,14.7,30.13,WNW,284,0.0,0.0,94,0.00,,OVC,0.00,WeatherDisplay:10.37,2013-12-25 00:40:00,
2013-12-24 19:50:00,15.0,11.9,30.13,NNW,333,0.0,0.0,87,0.00,,OVC,0.00,WeatherDisplay:10.37,2013-12-25 00:50:00,
2013-12-24 20:00:00,14.5,10.6,30.16,WNW,303,0.0,0.0,84,0.00,,OVC,0.00,WeatherDisplay:10.37,2013-12-25 01:00:00,
2013-12-24 20:10:00,14.4,10.9,30.19,NNW,327,0.0,0.0,86,0.00,,OVC,0.00,WeatherDisplay:10.37,2013-12-25 01:10:00,
2013-12-24 20:20:00,14.0,10.6,30.19,NW,306,0.0,0.0,86,0.00,,OVC,0.00,WeatherDisplay:10.37,2013-12-25 01:20:00,
2013-12-24 20:30:00,13.5,10.1,30.19,NNW,337,0.0,0.0,86,0.00,,OVC,0.00,WeatherDisplay:10.37,2013-12-25 01:30:00,
2013-12-24 20:40:00,13.2,9.8,30.19,North,360,0.0,0.0,86,0.00,,OVC,0.00,WeatherDisplay:10.37,2013-12-25 01:40:00,
2013-12-24 20:50:00,12.7,9.3,30.19,West,273,0.0,0.0,86,0.00,,OVC,0.00,WeatherDisplay:10.37,2013-12-25 01:50:00,
2013-12-24 21:00:00,12.4,9.0,30.19,SW,233,0.0,0.0,86,0.00,,OVC,0.00,WeatherDisplay:10.37,2013-12-25 02:00:00,
2013-12-24 21:10:00,12.4,9.0,30.19,North,8,0.0,0.0,86,0.00,,OVC,0.00,WeatherDisplay:10.37,2013-12-25 02:10:00,
2013-12-24 21:20:00,12.2,8.8,30.19,NNW,331,0.0,0.0,86,0.00,,OVC,0.00,WeatherDisplay:10.37,2013-12-25 02:20:00,
2013-12-24 21:30:00,12.0,8.6,30.19,NNW,340,0.0,0.0,86,0.00,,OVC,0.00,WeatherDisplay:10.37,2013-12-25 02:30:00,
2013-12-24 21:40:00,11.8,8.5,30.19,WSW,245,0.0,0.0,86,0.00,,OVC,0.00,WeatherDisplay:10.37,2013-12-25 02:40:00,
2013-12-24 21:50:00,11.3,7.9,30.19,West,272,0.0,0.0,86,0.00,,OVC,0.00,WeatherDisplay:10.37,2013-12-25 02:50:00,
2013-12-24 22:00:00,10.9,7.6,30.19,NW,314,0.0,0.0,86,0.00,,OVC,0.00,WeatherDisplay:10.37,2013-12-25 03:00:00,
2013-12-24 22:10:00,10.6,7.2,30.19,WNW,288,0.0,0.0,86,0.00,,OVC,0.00,WeatherDisplay:10.37,2013-12-25 03:10:00,
2013-12-24 22:20:00,10.4,7.0,30.19,WSW,250,0.0,0.0,86,0.00,,OVC,0.00,WeatherDisplay:10.37,2013-12-25 03:20:00,
2013-12-24 22:30:00,10.4,7.0,30.22,WSW,246,0.0,0.0,86,0.00,,OVC,0.00,WeatherDisplay:10.37,2013-12-25 03:30:00,
2013-12-24 22:40:00,10.2,6.9,30.19,WSW,246,0.0,0.0,86,0.00,,OVC,0.00,WeatherDisplay:10.37,2013-12-25 03:40:00,
2013-12-24 22:50:00,10.0,6.7,30.19,WSW,256,0.0,0.0,86,0.00,,OVC,0.00,WeatherDisplay:10.37,2013-12-25 03:50:00,
2013-12-24 23:00:00,9.9,6.5,30.22,WNW,299,0.0,0.0,86,0.00,,OVC,0.00,WeatherDisplay:10.37,2013-12-25 04:00:00,
2013-12-24 23:10:00,9.7,6.3,30.22,WNW,286,0.0,0.0,86,0.00,,OVC,0.00,WeatherDisplay:10.37,2013-12-25 04:10:00,
2013-12-24 23:20:00,9.5,6.2,30.22,West,275,0.0,0.0,86,0.00,,OVC,0.00,WeatherDisplay:10.37,2013-12-25 04:20:00,
2013-12-24 23:30:00,9.3,6.0,30.22,West,271,0.0,0.0,86,0.00,,OVC,0.00,WeatherDisplay:10.37,2013-12-25 04:30:00,
2013-12-24 23:40:00,9.1,5.8,30.22,West,280,0.0,0.0,86,0.00,,OVC,0.00,WeatherDisplay:10.37,2013-12-25 04:40:00,
2013-12-24 23:50:00,9.1,5.8,30.22,WSW,258,0.0,0.0,86,0.00,,OVC,0.00,WeatherDisplay:10.37,2013-12-25 04:50:00,